createdAt,value
2019-01-08T00:01:23.981Z,17.77
2019-01-08T00:03:53.340Z,17.37
2019-01-08T00:06:22.751Z,20.97
2019-01-08T00:08:51.984Z,21.73
2019-01-08T00:11:21.533Z,18.67
2019-01-08T00:13:50.762Z,20.80
2019-01-08T00:16:19.932Z,20.17
2019-01-08T00:18:49.113Z,21.02
2019-01-08T00:21:18.310Z,21.10
2019-01-08T00:23:47.550Z,21.52
2019-01-08T00:26:16.815Z,18.25
2019-01-08T00:28:46.168Z,17.73
2019-01-08T00:31:15.347Z,18.65
2019-01-08T00:33:44.513Z,18.07
2019-01-08T00:36:13.787Z,18.85
2019-01-08T00:38:42.954Z,16.02
2019-01-08T00:41:12.196Z,17.87
2019-01-08T00:43:41.412Z,15.98
2019-01-08T00:46:10.568Z,15.03
2019-01-08T00:48:39.754Z,15.00
2019-01-08T00:51:09.031Z,11.05
2019-01-08T00:53:38.192Z,11.12
2019-01-08T00:56:07.365Z,14.05
2019-01-08T00:58:36.572Z,13.55
2019-01-08T01:01:05.817Z,15.35
2019-01-08T01:03:35.012Z,13.88
2019-01-08T01:06:04.202Z,13.88
2019-01-08T01:08:33.360Z,14.50
2019-01-08T01:11:02.513Z,12.40
2019-01-08T01:13:31.956Z,15.78
2019-01-08T01:16:01.141Z,13.10
2019-01-08T01:18:30.412Z,11.30
2019-01-08T01:20:59.624Z,13.10
2019-01-08T01:23:29.052Z,11.10
2019-01-08T01:25:58.295Z,13.58
2019-01-08T01:28:27.564Z,13.10
2019-01-08T01:30:56.724Z,9.50
2019-01-08T01:33:26.028Z,11.12
2019-01-08T01:35:55.390Z,8.78
2019-01-08T01:38:24.642Z,9.90
2019-01-08T01:40:53.890Z,10.25
2019-01-08T01:43:23.145Z,7.55
2019-01-08T01:45:52.399Z,9.00
2019-01-08T01:48:21.560Z,9.05
2019-01-08T01:50:50.754Z,7.78
2019-01-08T01:53:19.922Z,7.30
2019-01-08T01:55:49.107Z,6.58
2019-01-08T01:58:18.292Z,5.83
2019-01-08T02:00:47.466Z,6.87
2019-01-08T02:03:16.701Z,7.25
2019-01-08T02:05:46.294Z,7.92
2019-01-08T02:08:15.491Z,4.85
2019-01-08T02:10:44.675Z,5.25
2019-01-08T02:13:14.006Z,3.92
2019-01-08T02:15:43.300Z,4.53
2019-01-08T02:18:12.606Z,4.20
2019-01-08T02:20:41.867Z,4.90
2019-01-08T02:23:11.023Z,5.45
2019-01-08T02:25:40.184Z,4.80
2019-01-08T02:28:09.383Z,4.83
2019-01-08T02:30:38.647Z,4.85
2019-01-08T02:33:07.879Z,4.12
2019-01-08T02:35:37.131Z,6.03
2019-01-08T02:38:06.313Z,4.22
2019-01-08T02:40:35.543Z,4.75
2019-01-08T02:43:04.731Z,3.90
2019-01-08T02:45:33.905Z,4.60
2019-01-08T02:48:03.070Z,4.22
2019-01-08T02:50:32.270Z,4.75
2019-01-08T02:53:01.437Z,4.70
2019-01-08T02:55:30.682Z,4.10
2019-01-08T02:57:59.879Z,4.08
2019-01-08T03:00:29.043Z,4.00
2019-01-08T03:02:58.220Z,3.70
2019-01-08T03:05:27.526Z,4.70
2019-01-08T03:07:56.778Z,3.35
2019-01-08T03:10:26.005Z,3.95
2019-01-08T03:12:55.189Z,2.75
2019-01-08T03:15:24.408Z,3.25
2019-01-08T03:17:53.594Z,4.15
2019-01-08T03:20:22.818Z,3.75
2019-01-08T03:22:51.974Z,4.62
2019-01-08T03:25:21.127Z,3.92
2019-01-08T03:27:50.302Z,5.05
2019-01-08T03:30:19.473Z,3.27
2019-01-08T03:32:48.710Z,4.78
2019-01-08T03:35:17.958Z,3.10
2019-01-08T03:37:47.207Z,4.35
2019-01-08T03:40:16.435Z,2.65
2019-01-08T03:42:45.702Z,2.77
2019-01-08T03:45:15.218Z,3.30
2019-01-08T03:47:44.588Z,3.65
2019-01-08T03:50:13.844Z,4.35
2019-01-08T03:52:43.220Z,3.02
2019-01-08T03:55:12.375Z,3.22
2019-01-08T03:57:41.640Z,2.98
2019-01-08T04:00:12.089Z,3.20
2019-01-08T04:02:41.251Z,3.17
2019-01-08T04:05:10.695Z,4.42
2019-01-08T04:07:39.928Z,3.85
2019-01-08T04:10:09.499Z,4.40
2019-01-08T04:12:38.692Z,3.65
2019-01-08T04:15:08.013Z,4.62
2019-01-08T04:17:37.191Z,3.67
2019-01-08T04:20:06.535Z,3.98
2019-01-08T04:22:37.361Z,5.08
2019-01-08T04:25:06.516Z,4.42
2019-01-08T04:27:36.029Z,3.50
2019-01-08T04:30:07.940Z,3.85
2019-01-08T04:32:36.932Z,4.20
2019-01-08T04:35:06.169Z,3.83
2019-01-08T04:37:35.339Z,4.25
2019-01-08T04:40:04.541Z,4.60
2019-01-08T04:42:33.809Z,3.90
2019-01-08T04:45:02.974Z,3.05
2019-01-08T04:47:32.216Z,3.10
2019-01-08T04:50:01.406Z,4.67
2019-01-08T04:52:30.692Z,4.10
2019-01-08T04:54:59.876Z,4.30
2019-01-08T04:57:29.061Z,4.62
2019-01-08T04:59:59.045Z,4.35
2019-01-08T05:02:28.566Z,4.72
2019-01-08T05:04:57.819Z,3.65
2019-01-08T05:07:27.079Z,3.22
2019-01-08T05:09:56.233Z,3.90
2019-01-08T05:12:25.449Z,4.50
2019-01-08T05:14:54.688Z,6.03
2019-01-08T05:17:23.850Z,4.90
2019-01-08T05:19:53.041Z,5.35
2019-01-08T05:22:22.194Z,4.42
2019-01-08T05:24:51.363Z,5.08
2019-01-08T05:27:20.562Z,3.22
2019-01-08T05:29:49.798Z,3.47
2019-01-08T05:32:18.985Z,5.05
2019-01-08T05:34:48.256Z,3.92
2019-01-08T05:37:17.414Z,6.03
2019-01-08T05:39:46.580Z,5.15
2019-01-08T05:42:15.775Z,4.62
2019-01-08T05:44:45.040Z,4.35
2019-01-08T05:47:14.230Z,4.17
2019-01-08T05:49:43.504Z,5.12
2019-01-08T05:52:12.749Z,8.13
2019-01-08T05:54:41.911Z,4.47
2019-01-08T05:57:11.174Z,4.25
2019-01-08T05:59:40.335Z,3.60
2019-01-08T06:02:09.486Z,4.12
2019-01-08T06:04:38.691Z,7.47
2019-01-08T06:07:07.908Z,5.60
2019-01-08T06:09:37.136Z,3.92
2019-01-08T06:12:06.325Z,7.40
2019-01-08T06:14:36.850Z,5.62
2019-01-08T06:17:06.418Z,4.97
2019-01-08T06:19:35.615Z,6.08
2019-01-08T06:22:04.835Z,5.33
2019-01-08T06:24:33.994Z,4.67
2019-01-08T06:27:03.212Z,5.10
2019-01-08T06:29:32.385Z,4.62
2019-01-08T06:32:01.616Z,4.90
2019-01-08T06:34:30.828Z,4.78
2019-01-08T06:37:00.003Z,5.58
2019-01-08T06:39:29.168Z,5.00
2019-01-08T06:41:58.351Z,5.95
2019-01-08T06:44:27.531Z,5.58
2019-01-08T06:46:56.865Z,5.22
2019-01-08T06:49:26.048Z,4.72
2019-01-08T06:51:55.405Z,4.05
2019-01-08T06:54:24.566Z,4.12
2019-01-08T06:56:53.845Z,5.12
2019-01-08T06:59:23.005Z,5.05
2019-01-08T07:01:52.171Z,5.30
2019-01-08T07:04:21.367Z,5.20
2019-01-08T07:06:50.608Z,4.97
2019-01-08T07:09:19.760Z,6.20
2019-01-08T07:11:48.963Z,5.87
2019-01-08T07:14:18.218Z,5.08
2019-01-08T07:16:47.385Z,4.92
2019-01-08T07:19:16.682Z,6.17
2019-01-08T07:21:46.007Z,3.33
2019-01-08T07:24:15.175Z,5.45
2019-01-08T07:26:44.437Z,4.83
2019-01-08T07:29:13.674Z,4.62
2019-01-08T07:31:43.004Z,5.40
2019-01-08T07:34:12.776Z,5.10
2019-01-08T07:36:42.001Z,5.45
2019-01-08T07:39:11.175Z,4.62
2019-01-08T07:41:40.363Z,4.95
2019-01-08T07:44:09.542Z,4.92
2019-01-08T07:46:40.266Z,4.65
2019-01-08T07:49:09.699Z,4.12
2019-01-08T07:51:38.930Z,3.33
2019-01-08T07:54:08.179Z,4.90
2019-01-08T07:56:37.363Z,3.60
2019-01-08T07:59:06.626Z,5.25
2019-01-08T08:01:36.065Z,4.58
2019-01-08T08:04:05.357Z,4.30
2019-01-08T08:06:34.550Z,3.80
2019-01-08T08:09:04.977Z,4.17
2019-01-08T08:11:34.253Z,5.87
2019-01-08T08:14:03.409Z,4.58
2019-01-08T08:16:32.861Z,4.87
2019-01-08T08:19:02.059Z,6.42
2019-01-08T08:21:31.287Z,6.37
2019-01-08T08:24:00.454Z,3.58
2019-01-08T08:26:29.645Z,5.95
2019-01-08T08:28:58.920Z,3.40
2019-01-08T08:31:28.134Z,6.30
2019-01-08T08:33:57.378Z,3.45
2019-01-08T08:36:26.612Z,2.72
2019-01-08T08:38:55.840Z,3.83
2019-01-08T08:41:25.385Z,2.60
2019-01-08T08:43:54.758Z,2.35
2019-01-08T08:46:23.940Z,3.33
2019-01-08T08:48:53.758Z,2.83
2019-01-08T08:51:22.918Z,2.92
2019-01-08T08:53:52.862Z,2.40
2019-01-08T08:56:23.027Z,4.50
2019-01-08T08:58:52.256Z,2.17
2019-01-08T09:01:21.440Z,3.47
2019-01-08T09:03:50.655Z,1.80
2019-01-08T09:06:19.970Z,1.72
2019-01-08T09:08:49.217Z,3.00
2019-01-08T09:11:18.422Z,1.35
2019-01-08T09:13:47.731Z,1.75
2019-01-08T09:16:16.955Z,1.90
2019-01-08T09:18:46.159Z,1.92
2019-01-08T09:21:15.386Z,1.70
2019-01-08T09:23:44.626Z,1.95
2019-01-08T09:26:13.943Z,2.25
2019-01-08T09:28:43.179Z,2.22
2019-01-08T09:31:15.656Z,2.15
2019-01-08T09:33:43.285Z,3.15
2019-01-08T09:36:12.467Z,1.57
2019-01-08T09:38:41.644Z,3.95
2019-01-08T09:41:10.899Z,2.40
2019-01-08T09:43:40.122Z,2.27
2019-01-08T09:46:09.387Z,2.90
2019-01-08T09:48:38.642Z,4.05
2019-01-08T09:51:08.286Z,2.70
2019-01-08T09:53:37.461Z,3.45
2019-01-08T09:56:06.692Z,2.65
2019-01-08T09:58:36.085Z,1.95
2019-01-08T10:01:05.306Z,1.47
2019-01-08T10:03:34.567Z,4.28
2019-01-08T10:06:03.737Z,2.95
2019-01-08T10:08:33.891Z,2.87
2019-01-08T10:11:03.190Z,5.35
2019-01-08T10:13:32.445Z,2.95
2019-01-08T10:16:01.684Z,3.00
2019-01-08T10:18:30.886Z,5.53
2019-01-08T10:21:00.061Z,3.80
2019-01-08T10:23:29.380Z,4.15
2019-01-08T10:25:58.588Z,4.87
2019-01-08T10:28:27.796Z,3.55
2019-01-08T10:30:57.038Z,3.98
2019-01-08T10:33:26.252Z,3.00
2019-01-08T10:35:55.569Z,3.77
2019-01-08T10:38:24.749Z,3.80
2019-01-08T10:40:54.026Z,4.92
2019-01-08T10:43:23.369Z,3.25
2019-01-08T10:45:52.542Z,3.10
2019-01-08T10:48:21.744Z,2.62
2019-01-08T10:50:50.916Z,2.10
2019-01-08T10:53:20.242Z,2.35
2019-01-08T10:55:49.458Z,3.02
2019-01-08T10:58:18.628Z,4.35
2019-01-08T11:00:47.879Z,3.75
2019-01-08T11:03:17.158Z,3.60
2019-01-08T11:05:46.337Z,3.42
2019-01-08T11:08:15.568Z,2.40
2019-01-08T11:10:44.949Z,3.10
2019-01-08T11:13:14.187Z,2.42
2019-01-08T11:15:43.352Z,3.98
2019-01-08T11:18:12.536Z,4.80
2019-01-08T11:20:41.787Z,4.53
2019-01-08T11:23:11.024Z,3.20
2019-01-08T11:25:40.295Z,3.27
2019-01-08T11:28:09.543Z,2.83
2019-01-08T11:30:38.731Z,4.65
2019-01-08T11:33:07.924Z,4.87
2019-01-08T11:35:42.214Z,5.30
2019-01-08T11:38:08.114Z,4.90
2019-01-08T11:40:37.471Z,3.25
2019-01-08T11:43:06.731Z,5.22
2019-01-08T11:45:36.055Z,4.75
2019-01-08T11:48:05.318Z,7.78
2019-01-08T11:50:34.562Z,4.92
2019-01-08T11:53:03.739Z,4.95
2019-01-08T11:55:32.950Z,3.40
2019-01-08T11:58:02.249Z,5.22
2019-01-08T12:00:31.969Z,6.20
2019-01-08T12:03:01.192Z,5.03
2019-01-08T12:05:30.456Z,3.25
2019-01-08T12:07:59.793Z,5.72
2019-01-08T12:10:29.061Z,5.97
2019-01-08T12:12:58.386Z,5.58
2019-01-08T12:15:27.603Z,4.42
2019-01-08T12:17:56.976Z,5.92
2019-01-08T12:20:26.216Z,3.22
2019-01-08T12:22:55.456Z,4.83
2019-01-08T12:25:24.738Z,5.53
2019-01-08T12:27:53.994Z,5.58
2019-01-08T12:30:26.416Z,4.08
2019-01-08T12:32:55.684Z,3.27
2019-01-08T12:35:24.858Z,5.33
2019-01-08T12:37:54.056Z,4.40
2019-01-08T12:40:23.377Z,5.85
2019-01-08T12:42:52.703Z,5.55
2019-01-08T12:45:21.957Z,4.08
2019-01-08T12:47:51.155Z,5.20
2019-01-08T12:50:20.318Z,3.35
2019-01-08T12:52:49.487Z,4.58
2019-01-08T12:55:18.691Z,5.08
2019-01-08T12:57:48.160Z,2.75
2019-01-08T13:00:17.403Z,7.42
2019-01-08T13:02:46.673Z,3.02
2019-01-08T13:05:15.943Z,3.87
2019-01-08T13:07:45.124Z,5.55
2019-01-08T13:10:14.450Z,5.25
2019-01-08T13:12:43.642Z,5.53
2019-01-08T13:15:12.878Z,3.55
2019-01-08T13:17:42.081Z,4.72
2019-01-08T13:20:11.638Z,6.37
2019-01-08T13:22:40.811Z,6.42
2019-01-08T13:25:10.008Z,5.95
2019-01-08T13:27:39.167Z,5.62
2019-01-08T13:30:08.952Z,4.83
2019-01-08T13:32:38.305Z,7.03
2019-01-08T13:35:07.480Z,6.87
2019-01-08T13:37:36.679Z,7.12
2019-01-08T13:40:06.358Z,7.22
2019-01-08T13:42:35.643Z,5.92
2019-01-08T13:45:04.921Z,5.00
2019-01-08T13:47:34.101Z,6.45
2019-01-08T13:50:03.257Z,6.33
2019-01-08T13:52:32.531Z,5.28
2019-01-08T13:55:01.793Z,6.15
2019-01-08T13:57:31.070Z,5.37
2019-01-08T14:00:00.314Z,5.25
2019-01-08T14:02:32.064Z,5.53
2019-01-08T14:05:00.932Z,4.87
2019-01-08T14:07:30.418Z,7.28
2019-01-08T14:09:59.753Z,7.87
2019-01-08T14:12:28.985Z,5.90
2019-01-08T14:14:58.156Z,5.12
2019-01-08T14:17:27.450Z,5.08
2019-01-08T14:19:56.681Z,5.62
2019-01-08T14:22:25.928Z,5.25
2019-01-08T14:24:55.123Z,7.55
2019-01-08T14:27:24.289Z,7.10
2019-01-08T14:29:53.524Z,4.47
2019-01-08T14:32:22.735Z,6.08
2019-01-08T14:34:51.921Z,4.97
2019-01-08T14:37:21.175Z,6.95
2019-01-08T14:39:50.497Z,6.20
2019-01-08T14:42:19.734Z,5.00
2019-01-08T14:44:48.884Z,7.70
2019-01-08T14:47:18.069Z,6.03
2019-01-08T14:49:47.310Z,5.12
2019-01-08T14:52:16.490Z,6.65
2019-01-08T14:54:47.547Z,7.15
2019-01-08T14:57:16.810Z,5.85
2019-01-08T14:59:46.125Z,4.33
2019-01-08T15:02:15.421Z,7.45
2019-01-08T15:04:45.070Z,4.90
2019-01-08T15:07:14.251Z,5.00
2019-01-08T15:09:43.460Z,5.78
2019-01-08T15:12:12.611Z,5.85
2019-01-08T15:14:41.781Z,6.55
2019-01-08T15:17:11.036Z,6.20
2019-01-08T15:19:40.224Z,4.50
2019-01-08T15:22:09.396Z,5.28
2019-01-08T15:24:38.680Z,6.62
2019-01-08T15:27:07.917Z,6.97
2019-01-08T15:29:37.162Z,4.97
2019-01-08T15:32:06.497Z,7.08
2019-01-08T15:34:35.739Z,6.28
2019-01-08T15:37:04.989Z,5.58
2019-01-08T15:39:34.288Z,6.17
2019-01-08T15:42:03.573Z,3.95
2019-01-08T15:44:32.754Z,4.45
2019-01-08T15:47:01.962Z,3.87
2019-01-08T15:49:31.133Z,3.05
2019-01-08T15:52:00.380Z,5.53
2019-01-08T15:54:29.656Z,5.12
2019-01-08T15:56:59.015Z,4.15
2019-01-08T15:59:28.209Z,3.55
2019-01-08T16:01:57.412Z,5.03
2019-01-08T16:04:27.187Z,4.03
2019-01-08T16:06:56.354Z,3.22
2019-01-08T16:09:25.640Z,4.05
2019-01-08T16:11:54.885Z,4.35
2019-01-08T16:14:24.132Z,4.42
2019-01-08T16:16:53.412Z,5.85
2019-01-08T16:19:22.688Z,5.70
2019-01-08T16:21:52.080Z,4.08
2019-01-08T16:24:21.437Z,6.05
2019-01-08T16:26:50.663Z,5.17
2019-01-08T16:29:19.835Z,4.33
2019-01-08T16:31:49.138Z,7.60
2019-01-08T16:34:18.620Z,6.15
2019-01-08T16:36:48.375Z,5.85
2019-01-08T16:39:18.177Z,6.10
2019-01-08T16:41:47.464Z,5.85
2019-01-08T16:44:16.738Z,6.30
2019-01-08T16:46:46.166Z,5.37
2019-01-08T16:49:15.485Z,4.72
2019-01-08T16:51:44.688Z,4.40
2019-01-08T16:54:14.052Z,4.47
2019-01-08T16:56:43.315Z,5.22
2019-01-08T16:59:12.670Z,3.98
2019-01-08T17:01:41.893Z,4.55
2019-01-08T17:04:11.069Z,3.62
2019-01-08T17:06:40.493Z,3.92
2019-01-08T17:09:09.863Z,3.77
2019-01-08T17:11:39.114Z,4.37
2019-01-08T17:14:08.485Z,4.53
2019-01-08T17:16:37.687Z,4.53
2019-01-08T17:19:06.849Z,3.10
2019-01-08T17:21:36.262Z,4.05
2019-01-08T17:24:05.911Z,4.37
2019-01-08T17:26:35.163Z,3.42
2019-01-08T17:29:04.353Z,5.17
2019-01-08T17:31:33.633Z,2.35
2019-01-08T17:34:02.806Z,2.47
2019-01-08T17:36:31.974Z,3.35
2019-01-08T17:39:01.179Z,5.30
2019-01-08T17:41:30.420Z,5.45
2019-01-08T17:43:59.781Z,4.78
2019-01-08T17:46:29.070Z,3.42
2019-01-08T17:48:58.230Z,5.45
2019-01-08T17:51:27.487Z,5.90
2019-01-08T17:53:56.972Z,3.80
2019-01-08T17:56:26.260Z,5.75
2019-01-08T17:59:09.567Z,6.30
2019-01-08T18:01:43.868Z,4.60
2019-01-08T18:04:13.339Z,6.58
2019-01-08T18:06:42.597Z,4.40
2019-01-08T18:09:11.855Z,5.17
2019-01-08T18:11:41.094Z,5.47
2019-01-08T18:14:10.357Z,5.10
2019-01-08T18:16:39.611Z,4.75
2019-01-08T18:19:08.827Z,5.10
2019-01-08T18:21:38.283Z,4.25
2019-01-08T18:24:07.568Z,4.95
2019-01-08T18:26:36.929Z,3.25
2019-01-08T18:29:06.283Z,3.98
2019-01-08T18:31:35.534Z,4.80
2019-01-08T18:34:04.847Z,6.22
2019-01-08T18:36:34.022Z,4.70
2019-01-08T18:39:04.581Z,5.15
2019-01-08T18:41:33.866Z,2.42
2019-01-08T18:44:03.149Z,4.30
2019-01-08T18:46:32.327Z,2.80
2019-01-08T18:49:01.665Z,2.42
2019-01-08T18:51:30.824Z,2.95
2019-01-08T18:54:00.001Z,3.20
2019-01-08T18:56:29.301Z,3.45
2019-01-08T18:58:58.551Z,3.30
2019-01-08T19:01:27.756Z,3.87
2019-01-08T19:03:59.929Z,2.85
2019-01-08T19:06:28.047Z,3.60
2019-01-08T19:09:31.793Z,2.92
2019-01-08T19:12:01.145Z,3.75
2019-01-08T19:14:36.532Z,3.22
2019-01-08T19:17:06.166Z,3.00
2019-01-08T19:19:35.380Z,4.67
2019-01-08T19:22:05.421Z,3.85
2019-01-08T19:24:34.676Z,5.50
2019-01-08T19:27:03.870Z,4.33
2019-01-08T19:29:33.232Z,4.28
2019-01-08T19:32:02.428Z,3.35
2019-01-08T19:34:31.695Z,4.75
2019-01-08T19:37:01.162Z,4.17
2019-01-08T19:39:30.478Z,5.25
2019-01-08T19:41:59.721Z,3.00
2019-01-08T19:44:29.032Z,5.70
2019-01-08T19:46:58.216Z,5.15
2019-01-08T19:49:27.455Z,4.70
2019-01-08T19:51:56.764Z,5.00
2019-01-08T19:54:26.130Z,4.00
2019-01-08T19:56:55.373Z,3.95
2019-01-08T19:59:24.606Z,9.43
2019-01-08T20:01:53.957Z,7.60
2019-01-08T20:04:23.231Z,3.42
2019-01-08T20:06:52.589Z,4.22
2019-01-08T20:09:25.513Z,4.30
2019-01-08T20:11:53.260Z,6.10
2019-01-08T20:14:23.748Z,5.42
2019-01-08T20:16:53.009Z,4.95
2019-01-08T20:19:22.198Z,5.25
2019-01-08T20:21:54.817Z,6.58
2019-01-08T20:24:24.203Z,3.87
2019-01-08T20:26:53.903Z,6.10
2019-01-08T20:29:23.179Z,4.97
2019-01-08T20:31:52.440Z,4.10
2019-01-08T20:34:26.409Z,4.40
2019-01-08T20:36:52.680Z,5.28
2019-01-08T20:39:22.051Z,7.00
2019-01-08T20:41:51.320Z,7.12
2019-01-08T20:44:20.548Z,4.25
2019-01-08T20:46:49.869Z,4.35
2019-01-08T20:49:19.206Z,4.90
2019-01-08T20:51:48.759Z,4.53
2019-01-08T20:54:20.570Z,7.92
2019-01-08T20:56:49.845Z,6.30
2019-01-08T20:59:19.156Z,4.60
2019-01-08T21:01:48.517Z,8.40
2019-01-08T21:04:17.715Z,7.72
2019-01-08T21:06:46.975Z,4.78
2019-01-08T21:09:16.213Z,5.10
2019-01-08T21:11:45.654Z,3.65
2019-01-08T21:14:15.155Z,3.42
2019-01-08T21:16:46.797Z,4.33
2019-01-08T21:19:15.292Z,2.98
2019-01-08T21:21:44.609Z,4.92
2019-01-08T21:24:13.799Z,4.47
2019-01-08T21:26:43.200Z,6.42
2019-01-08T21:29:12.484Z,4.97
2019-01-08T21:31:41.668Z,3.92
2019-01-08T21:34:10.935Z,3.62
2019-01-08T21:36:40.209Z,4.10
2019-01-08T21:39:09.392Z,3.45
2019-01-08T21:41:38.643Z,3.92
2019-01-08T21:44:07.833Z,3.45
2019-01-08T21:46:37.051Z,2.20
2019-01-08T21:49:06.320Z,3.10
2019-01-08T21:51:35.599Z,3.87
2019-01-08T21:54:04.831Z,4.37
2019-01-08T21:56:34.024Z,3.85
2019-01-08T21:59:03.241Z,4.72
2019-01-08T22:01:32.566Z,3.30
2019-01-08T22:04:01.934Z,5.87
2019-01-08T22:06:31.142Z,5.62
2019-01-08T22:09:00.400Z,4.80
2019-01-08T22:11:29.583Z,4.10
2019-01-08T22:13:58.982Z,3.47
2019-01-08T22:16:28.301Z,5.87
2019-01-08T22:18:57.467Z,3.45
2019-01-08T22:21:26.772Z,4.25
2019-01-08T22:23:56.029Z,5.45
2019-01-08T22:26:25.279Z,5.60
2019-01-08T22:28:54.562Z,4.03
2019-01-08T22:31:23.816Z,3.58
2019-01-08T22:33:53.191Z,4.20
2019-01-08T22:36:22.489Z,4.58
2019-01-08T22:38:51.666Z,4.10
2019-01-08T22:41:20.901Z,5.67
2019-01-08T22:43:50.182Z,4.40
2019-01-08T22:46:19.436Z,5.35
2019-01-08T22:48:48.715Z,5.05
2019-01-08T22:51:17.959Z,4.55
2019-01-08T22:53:47.134Z,4.10
2019-01-08T22:56:16.408Z,3.77
2019-01-08T22:58:45.623Z,4.80
2019-01-08T23:01:20.138Z,4.55
2019-01-08T23:03:49.351Z,3.67
2019-01-08T23:06:18.608Z,4.28
2019-01-08T23:08:47.791Z,5.75
2019-01-08T23:11:17.064Z,5.08
2019-01-08T23:13:46.299Z,5.30
2019-01-08T23:16:15.457Z,4.87
2019-01-08T23:18:46.593Z,3.65
2019-01-08T23:21:15.824Z,4.92
2019-01-08T23:23:45.089Z,6.37
2019-01-08T23:26:14.302Z,6.40
2019-01-08T23:28:43.537Z,5.65
2019-01-08T23:31:12.704Z,5.50
2019-01-08T23:33:41.892Z,3.77
2019-01-08T23:36:11.055Z,3.65
2019-01-08T23:38:40.228Z,3.85
2019-01-08T23:41:09.443Z,3.45
2019-01-08T23:43:38.687Z,3.65
2019-01-08T23:46:07.994Z,3.95
2019-01-08T23:48:37.262Z,2.20
2019-01-08T23:51:06.528Z,3.12
2019-01-08T23:53:43.124Z,3.62
2019-01-08T23:56:12.375Z,2.90
2019-01-08T23:58:41.927Z,4.03
